createdAt,value
2023-02-24T00:02:01.997Z,4.05
2023-02-24T00:04:31.473Z,4.10
2023-02-24T00:06:58.387Z,3.45
2023-02-24T00:09:27.222Z,3.67
2023-02-24T00:11:57.198Z,3.63
2023-02-24T00:14:26.898Z,3.33
2023-02-24T00:16:53.994Z,3.58
2023-02-24T00:19:23.964Z,3.42
2023-02-24T00:21:51.824Z,3.83
2023-02-24T00:24:18.961Z,3.17
2023-02-24T00:26:48.631Z,4.13
2023-02-24T00:29:15.148Z,3.30
2023-02-24T00:31:43.142Z,3.50
2023-02-24T00:34:15.132Z,3.35
2023-02-24T00:36:41.846Z,3.58
2023-02-24T00:39:10.148Z,3.15
2023-02-24T00:41:40.194Z,3.28
2023-02-24T00:44:09.641Z,3.50
2023-02-24T00:46:39.238Z,3.10
2023-02-24T00:49:10.512Z,3.13
2023-02-24T00:51:40.438Z,3.20
2023-02-24T00:54:08.094Z,2.83
2023-02-24T00:56:34.980Z,3.58
2023-02-24T00:59:02.455Z,2.83
2023-02-24T01:01:33.849Z,3.45
2023-02-24T01:04:07.848Z,3.13
2023-02-24T01:06:34.286Z,3.13
2023-02-24T01:09:01.113Z,2.92
2023-02-24T01:11:59.167Z,3.17
2023-02-24T01:14:29.507Z,3.35
2023-02-24T01:16:56.616Z,2.78
2023-02-24T01:19:30.510Z,2.97
2023-02-24T01:22:02.063Z,2.78
2023-02-24T01:24:31.512Z,3.50
2023-02-24T01:26:57.914Z,2.95
2023-02-24T01:29:25.702Z,3.50
2023-02-24T01:31:52.929Z,2.90
2023-02-24T01:34:19.521Z,3.25
2023-02-24T01:36:45.971Z,3.03
2023-02-24T01:39:13.595Z,2.78
2023-02-24T01:41:50.620Z,3.03
2023-02-24T01:44:18.134Z,3.03
2023-02-24T01:46:47.516Z,2.90
2023-02-24T01:49:29.812Z,2.63
2023-02-24T01:52:02.051Z,3.17
2023-02-24T01:54:35.173Z,2.97
2023-02-24T01:57:05.635Z,3.03
2023-02-24T01:59:35.460Z,2.88
2023-02-24T02:02:05.119Z,3.33
2023-02-24T02:04:38.483Z,2.85
2023-02-24T02:07:10.020Z,2.80
2023-02-24T02:09:38.412Z,2.55
2023-02-24T02:12:04.891Z,2.47
2023-02-24T02:14:32.270Z,2.97
2023-02-24T02:17:26.636Z,3.55
2023-02-24T02:20:18.018Z,2.78
2023-02-24T02:23:21.716Z,2.50
2023-02-24T02:26:28.333Z,2.83
2023-02-24T02:29:12.884Z,2.75
2023-02-24T02:31:50.761Z,2.55
2023-02-24T02:34:21.679Z,2.70
2023-02-24T02:37:17.556Z,3.50
2023-02-24T02:40:16.189Z,3.10
2023-02-24T02:42:54.465Z,3.10
2023-02-24T02:45:40.397Z,3.10
2023-02-24T02:48:16.224Z,2.38
2023-02-24T02:50:49.929Z,2.50
2023-02-24T02:53:28.816Z,3.08
2023-02-24T02:56:05.086Z,2.58
2023-02-24T02:58:36.140Z,2.80
2023-02-24T03:01:07.189Z,2.55
2023-02-24T03:03:45.231Z,3.53
2023-02-24T03:06:36.480Z,2.90
2023-02-24T03:09:12.380Z,2.88
2023-02-24T03:11:39.999Z,2.53
2023-02-24T03:14:12.041Z,3.45
2023-02-24T03:16:41.905Z,2.35
2023-02-24T03:19:11.176Z,2.50
2023-02-24T03:21:51.817Z,2.45
2023-02-24T03:24:18.268Z,2.97
2023-02-24T03:26:52.168Z,2.50
2023-02-24T03:29:50.421Z,2.60
2023-02-24T03:32:33.344Z,2.50
2023-02-24T03:35:16.916Z,2.25
2023-02-24T03:37:44.712Z,2.72
2023-02-24T03:40:16.575Z,2.67
2023-02-24T03:42:54.592Z,2.33
2023-02-24T03:45:23.112Z,2.17
2023-02-24T03:47:51.039Z,2.20
2023-02-24T03:50:20.157Z,2.72
2023-02-24T03:53:24.104Z,2.05
2023-02-24T03:56:22.509Z,2.72
2023-02-24T03:58:58.015Z,2.42
2023-02-24T04:01:31.065Z,2.53
2023-02-24T04:04:03.354Z,2.05
2023-02-24T04:06:58.136Z,3.42
2023-02-24T04:09:40.726Z,2.67
2023-02-24T04:12:18.720Z,2.47
2023-02-24T04:14:55.009Z,2.42
2023-02-24T04:17:35.849Z,2.28
2023-02-24T04:20:20.253Z,2.17
2023-02-24T04:22:54.471Z,2.15
2023-02-24T04:25:27.027Z,1.90
2023-02-24T04:27:55.784Z,1.90
2023-02-24T04:30:26.403Z,1.80
2023-02-24T04:32:53.037Z,2.10
2023-02-24T04:35:21.169Z,2.20
2023-02-24T04:37:49.113Z,1.98
2023-02-24T04:40:18.278Z,2.38
2023-02-24T04:42:49.011Z,2.10
2023-02-24T04:45:24.558Z,2.50
2023-02-24T04:47:56.088Z,1.98
2023-02-24T04:50:25.944Z,2.15
2023-02-24T04:52:54.809Z,2.10
2023-02-24T04:55:24.217Z,2.08
2023-02-24T04:57:54.280Z,1.85
2023-02-24T05:00:22.864Z,2.17
2023-02-24T05:02:50.778Z,2.08
2023-02-24T05:05:25.363Z,2.30
2023-02-24T05:07:54.514Z,1.80
2023-02-24T05:10:27.639Z,2.10
2023-02-24T05:12:58.034Z,1.70
2023-02-24T05:15:31.097Z,1.95
2023-02-24T05:18:07.292Z,2.05
2023-02-24T05:20:57.509Z,1.90
2023-02-24T05:23:36.649Z,2.00
2023-02-24T05:26:08.974Z,1.98
2023-02-24T05:28:37.359Z,2.20
2023-02-24T05:31:15.285Z,2.38
2023-02-24T05:33:43.844Z,1.67
2023-02-24T05:36:15.693Z,1.88
2023-02-24T05:38:43.949Z,1.95
2023-02-24T05:41:18.403Z,2.30
2023-02-24T05:43:53.086Z,1.70
2023-02-24T05:46:27.997Z,1.70
2023-02-24T05:48:59.937Z,2.05
2023-02-24T05:51:35.114Z,1.58
2023-02-24T05:54:07.411Z,1.70
2023-02-24T05:56:35.589Z,2.10
2023-02-24T05:59:05.028Z,1.70
2023-02-24T06:01:33.472Z,1.58
2023-02-24T06:04:07.652Z,2.58
2023-02-24T06:06:39.648Z,1.88
2023-02-24T06:09:12.680Z,2.25
2023-02-24T06:11:41.416Z,1.48
2023-02-24T06:14:09.331Z,2.20
2023-02-24T06:16:37.811Z,1.58
2023-02-24T06:19:05.332Z,1.60
2023-02-24T06:21:32.045Z,2.55
2023-02-24T06:23:59.552Z,1.85
2023-02-24T06:26:29.894Z,1.50
2023-02-24T06:28:59.832Z,1.95
2023-02-24T06:31:30.159Z,2.10
2023-02-24T06:33:56.935Z,1.70
2023-02-24T06:36:23.393Z,1.88
2023-02-24T06:38:50.047Z,2.05
2023-02-24T06:41:16.598Z,1.70
2023-02-24T06:43:44.829Z,1.80
2023-02-24T06:46:13.271Z,1.58
2023-02-24T06:48:39.977Z,1.90
2023-02-24T06:51:15.973Z,2.10
2023-02-24T06:53:43.844Z,1.77
2023-02-24T06:56:18.004Z,1.77
2023-02-24T06:58:47.069Z,2.03
2023-02-24T07:01:19.691Z,1.95
2023-02-24T07:04:03.499Z,1.90
2023-02-24T07:06:34.356Z,1.75
2023-02-24T07:09:05.322Z,1.98
2023-02-24T07:11:33.787Z,2.55
2023-02-24T07:14:00.817Z,2.03
2023-02-24T07:16:28.890Z,1.88
2023-02-24T07:18:57.338Z,2.55
2023-02-24T07:21:26.200Z,2.33
2023-02-24T07:23:58.945Z,2.47
2023-02-24T07:26:27.790Z,2.20
2023-02-24T07:28:55.118Z,2.63
2023-02-24T07:31:24.243Z,2.17
2023-02-24T07:33:57.279Z,2.58
2023-02-24T07:36:24.550Z,2.80
2023-02-24T07:38:55.139Z,2.70
2023-02-24T07:41:23.678Z,2.90
2023-02-24T07:43:51.736Z,2.85
2023-02-24T07:46:24.334Z,2.47
2023-02-24T07:48:55.240Z,2.85
2023-02-24T07:51:23.927Z,3.20
2023-02-24T07:53:56.764Z,3.30
2023-02-24T07:56:30.872Z,2.88
2023-02-24T07:59:03.338Z,3.35
2023-02-24T08:01:38.703Z,2.38
2023-02-24T08:04:12.423Z,2.70
2023-02-24T08:06:46.221Z,2.92
2023-02-24T08:09:20.545Z,2.65
2023-02-24T08:11:53.798Z,3.45
2023-02-24T08:14:32.754Z,2.70
2023-02-24T08:16:59.614Z,3.13
2023-02-24T08:19:39.651Z,3.03
2023-02-24T08:22:20.687Z,2.95
2023-02-24T08:25:00.580Z,3.10
2023-02-24T08:27:32.401Z,3.40
2023-02-24T08:30:03.350Z,2.97
2023-02-24T08:32:37.117Z,2.72
2023-02-24T08:35:05.108Z,3.40
2023-02-24T08:37:47.000Z,2.80
2023-02-24T08:40:32.037Z,3.00
2023-02-24T08:43:10.142Z,2.58
2023-02-24T08:45:38.475Z,2.55
2023-02-24T08:48:18.241Z,2.40
2023-02-24T08:50:45.720Z,2.83
2023-02-24T08:53:19.016Z,3.22
2023-02-24T08:55:46.565Z,2.67
2023-02-24T08:58:18.210Z,2.80
2023-02-24T09:00:53.538Z,3.55
2023-02-24T09:03:29.786Z,2.50
2023-02-24T09:05:59.613Z,2.38
2023-02-24T09:08:32.599Z,2.65
2023-02-24T09:11:08.038Z,2.63
2023-02-24T09:13:43.189Z,2.60
2023-02-24T09:16:16.470Z,2.50
2023-02-24T09:18:43.481Z,2.60
2023-02-24T09:21:37.201Z,2.35
2023-02-24T09:24:07.303Z,2.90
2023-02-24T09:26:43.243Z,2.42
2023-02-24T09:29:32.576Z,2.15
2023-02-24T09:32:06.476Z,2.50
2023-02-24T09:34:38.099Z,2.50
2023-02-24T09:37:05.121Z,2.85
2023-02-24T09:40:12.481Z,2.67
2023-02-24T09:42:48.093Z,2.40
2023-02-24T09:45:35.083Z,2.88
2023-02-24T09:48:16.912Z,2.47
2023-02-24T09:51:01.975Z,2.53
2023-02-24T09:53:41.280Z,2.58
2023-02-24T09:56:22.847Z,2.63
2023-02-24T09:58:59.037Z,2.50
2023-02-24T10:01:30.893Z,2.40
2023-02-24T10:04:20.078Z,2.67
2023-02-24T10:06:51.363Z,2.13
2023-02-24T10:09:24.469Z,2.35
2023-02-24T10:11:55.306Z,2.72
2023-02-24T10:14:42.914Z,2.63
2023-02-24T10:17:40.044Z,2.42
2023-02-24T10:20:28.603Z,2.72
2023-02-24T10:23:04.967Z,2.28
2023-02-24T10:28:16.802Z,2.20
2023-02-24T10:30:47.198Z,2.58
2023-02-24T10:33:20.622Z,2.50
2023-02-24T10:35:47.299Z,2.30
2023-02-24T10:38:14.798Z,2.63
2023-02-24T10:40:48.174Z,2.42
2023-02-24T10:43:20.273Z,2.10
2023-02-24T10:45:47.942Z,2.33
2023-02-24T10:48:39.306Z,2.30
2023-02-24T10:51:12.529Z,2.70
2023-02-24T10:53:39.225Z,2.25
2023-02-24T10:56:15.705Z,2.15
2023-02-24T11:01:46.357Z,2.25
2023-02-24T11:04:33.615Z,2.15
2023-02-24T11:07:24.418Z,1.80
2023-02-24T11:10:11.010Z,2.60
2023-02-24T11:13:09.302Z,2.03
2023-02-24T11:16:00.243Z,2.45
2023-02-24T11:18:28.266Z,2.38
2023-02-24T11:20:59.411Z,2.30
2023-02-24T11:23:46.462Z,2.55
2023-02-24T11:26:20.970Z,3.05
2023-02-24T11:29:19.776Z,2.45
2023-02-24T11:31:58.582Z,2.20
2023-02-24T11:34:40.184Z,2.63
2023-02-24T11:37:06.753Z,2.67
2023-02-24T11:39:50.299Z,2.30
2023-02-24T11:42:24.832Z,2.35
2023-02-24T11:45:22.713Z,2.30
2023-02-24T11:48:06.110Z,2.67
2023-02-24T11:50:39.749Z,2.30
2023-02-24T11:53:17.483Z,3.15
2023-02-24T11:55:49.499Z,2.28
2023-02-24T11:58:35.503Z,2.15
2023-02-24T12:01:10.272Z,2.63
2023-02-24T12:03:55.049Z,2.22
2023-02-24T12:06:30.723Z,2.58
2023-02-24T12:09:03.442Z,2.55
2023-02-24T12:11:42.838Z,2.25
2023-02-24T12:14:28.787Z,2.17
2023-02-24T12:17:03.345Z,1.90
2023-02-24T12:19:40.267Z,2.00
2023-02-24T12:22:15.197Z,2.00
2023-02-24T12:24:51.572Z,2.40
2023-02-24T12:30:48.562Z,2.00
2023-02-24T12:33:42.884Z,2.58
2023-02-24T12:36:33.717Z,2.55
2023-02-24T12:39:16.198Z,2.38
2023-02-24T12:41:48.699Z,2.33
2023-02-24T12:44:29.795Z,2.65
2023-02-24T12:47:09.719Z,2.35
2023-02-24T12:49:50.988Z,2.13
2023-02-24T12:52:31.158Z,2.30
2023-02-24T12:55:09.973Z,2.67
2023-02-24T12:58:09.071Z,2.10
2023-02-24T13:00:57.183Z,2.00
2023-02-24T13:03:44.506Z,1.90
2023-02-24T13:06:44.697Z,2.05
2023-02-24T13:09:48.402Z,2.28
2023-02-24T13:12:28.030Z,2.42
2023-02-24T13:14:55.360Z,2.10
2023-02-24T13:17:27.045Z,2.30
2023-02-24T13:19:57.046Z,2.50
2023-02-24T13:22:27.872Z,2.45
2023-02-24T13:24:54.179Z,3.00
2023-02-24T13:27:28.269Z,2.67
2023-02-24T13:30:08.237Z,2.58
2023-02-24T13:32:46.083Z,2.22
2023-02-24T13:35:15.591Z,2.78
2023-02-24T13:37:44.793Z,2.70
2023-02-24T13:40:23.082Z,2.35
2023-02-24T13:43:00.990Z,2.90
2023-02-24T13:45:41.794Z,3.15
2023-02-24T13:48:39.307Z,2.67
2023-02-24T13:51:34.090Z,2.58
2023-02-24T13:54:39.001Z,2.58
2023-02-24T13:57:20.682Z,2.75
2023-02-24T14:00:12.916Z,3.22
2023-02-24T14:02:43.954Z,2.92
2023-02-24T14:05:25.732Z,2.80
2023-02-24T14:07:53.228Z,2.80
2023-02-24T14:10:26.046Z,3.20
2023-02-24T14:13:17.714Z,3.30
2023-02-24T14:15:47.252Z,3.35
2023-02-24T14:18:27.218Z,2.78
2023-02-24T14:20:56.273Z,3.60
2023-02-24T14:23:28.977Z,2.55
2023-02-24T14:26:05.408Z,3.35
2023-02-24T14:31:07.696Z,3.03
2023-02-24T14:33:36.806Z,2.80
2023-02-24T14:36:06.180Z,2.65
2023-02-24T14:38:34.438Z,3.63
2023-02-24T14:41:23.061Z,3.17
2023-02-24T14:43:50.154Z,3.53
2023-02-24T14:46:16.708Z,2.95
2023-02-24T14:48:44.871Z,3.10
2023-02-24T14:51:29.405Z,3.55
2023-02-24T14:54:00.648Z,3.70
2023-02-24T14:56:33.572Z,3.45
2023-02-24T14:59:16.164Z,3.08
2023-02-24T15:01:48.155Z,3.28
2023-02-24T15:04:29.820Z,3.88
2023-02-24T15:06:56.488Z,3.45
2023-02-24T15:09:27.231Z,3.10
2023-02-24T15:11:56.109Z,3.40
2023-02-24T15:14:22.604Z,3.33
2023-02-24T15:16:53.805Z,3.40
2023-02-24T15:19:45.918Z,3.72
2023-02-24T15:22:39.259Z,3.35
2023-02-24T15:25:33.817Z,3.47
2023-02-24T15:28:53.100Z,3.40
2023-02-24T15:31:21.382Z,3.50
2023-02-24T15:33:58.007Z,3.45
2023-02-24T15:38:56.798Z,3.70
2023-02-24T15:41:23.968Z,3.63
2023-02-24T15:43:55.918Z,3.47
2023-02-24T15:46:35.513Z,3.25
2023-02-24T15:49:05.021Z,3.78
2023-02-24T15:51:41.386Z,3.80
2023-02-24T15:57:00.457Z,3.40
2023-02-24T15:59:28.037Z,4.18
2023-02-24T16:01:54.826Z,3.58
2023-02-24T16:04:22.894Z,3.95
2023-02-24T16:06:55.245Z,3.42
2023-02-24T16:09:33.848Z,3.95
2023-02-24T16:12:02.457Z,3.90
2023-02-24T16:14:28.941Z,3.95
2023-02-24T16:16:55.488Z,4.35
2023-02-24T16:19:21.945Z,4.05
2023-02-24T16:21:48.461Z,4.13
2023-02-24T16:24:15.023Z,4.00
2023-02-24T16:26:41.646Z,4.20
2023-02-24T16:29:14.680Z,4.05
2023-02-24T16:31:41.993Z,4.13
2023-02-24T16:34:12.116Z,4.35
2023-02-24T16:36:38.544Z,3.60
2023-02-24T16:39:05.364Z,4.32
2023-02-24T16:41:31.781Z,3.97
2023-02-24T16:43:58.199Z,3.88
2023-02-24T16:46:37.622Z,4.75
2023-02-24T16:49:07.998Z,4.32
2023-02-24T16:51:35.493Z,4.82
2023-02-24T16:54:02.336Z,4.43
2023-02-24T16:56:28.787Z,4.45
2023-02-24T16:58:55.313Z,4.20
2023-02-24T17:01:21.906Z,4.68
2023-02-24T17:03:54.066Z,4.30
2023-02-24T17:06:22.406Z,4.63
2023-02-24T17:08:50.753Z,4.35
2023-02-24T17:11:20.077Z,4.45
2023-02-24T17:13:46.546Z,3.97
2023-02-24T17:16:13.006Z,3.90
2023-02-24T17:18:39.497Z,4.18
2023-02-24T17:21:05.951Z,4.22
2023-02-24T17:23:32.486Z,3.72
2023-02-24T17:26:01.176Z,4.13
2023-02-24T17:28:27.935Z,4.10
2023-02-24T17:30:54.489Z,3.80
2023-02-24T17:33:21.137Z,4.00
2023-02-24T17:35:47.954Z,3.85
2023-02-24T17:38:15.799Z,3.92
2023-02-24T17:40:43.290Z,4.10
2023-02-24T17:43:10.129Z,3.90
2023-02-24T17:45:37.100Z,3.30
2023-02-24T17:48:03.604Z,3.45
2023-02-24T17:50:29.983Z,2.92
2023-02-24T17:52:57.571Z,3.17
2023-02-24T17:55:23.984Z,2.65
2023-02-24T17:57:50.379Z,3.30
2023-02-24T18:00:17.321Z,2.78
2023-02-24T18:02:43.992Z,2.92
2023-02-24T18:05:10.773Z,2.95
2023-02-24T18:07:37.497Z,3.53
2023-02-24T18:10:05.308Z,2.97
2023-02-24T18:12:31.717Z,3.03
2023-02-24T18:15:07.863Z,3.08
2023-02-24T18:17:36.018Z,3.25
2023-02-24T18:20:03.205Z,3.00
2023-02-24T18:22:29.827Z,2.67
2023-02-24T18:24:56.240Z,3.00
2023-02-24T18:27:22.892Z,2.85
2023-02-24T18:29:49.525Z,3.17
2023-02-24T18:32:16.184Z,3.13
2023-02-24T18:34:43.012Z,2.80
2023-02-24T18:37:09.512Z,2.50
2023-02-24T18:39:36.156Z,2.47
2023-02-24T18:42:02.629Z,2.60
2023-02-24T18:44:29.055Z,2.90
2023-02-24T18:46:55.500Z,2.67
2023-02-24T18:49:21.961Z,2.47
2023-02-24T18:51:48.992Z,2.33
2023-02-24T18:54:16.309Z,2.35
2023-02-24T18:56:42.947Z,2.88
2023-02-24T18:59:09.446Z,2.13
2023-02-24T19:01:39.101Z,2.92
2023-02-24T19:04:08.065Z,2.40
2023-02-24T19:06:36.272Z,2.50
2023-02-24T19:09:09.733Z,2.53
2023-02-24T19:11:37.166Z,2.05
2023-02-24T19:14:04.348Z,2.28
2023-02-24T19:16:31.061Z,2.13
2023-02-24T19:18:59.741Z,2.40
2023-02-24T19:21:27.866Z,2.45
2023-02-24T19:23:54.404Z,2.65
2023-02-24T19:26:24.322Z,2.13
2023-02-24T19:28:51.591Z,2.42
2023-02-24T19:31:21.673Z,2.45
2023-02-24T19:33:54.576Z,2.28
2023-02-24T19:36:21.841Z,2.13
2023-02-24T19:38:49.042Z,2.85
2023-02-24T19:41:15.440Z,2.47
2023-02-24T19:43:42.323Z,2.38
2023-02-24T19:46:11.140Z,2.70
2023-02-24T19:48:37.895Z,2.00
2023-02-24T19:51:13.495Z,1.98
2023-02-24T19:53:40.075Z,2.27
2023-02-24T19:56:07.065Z,2.22
2023-02-24T19:58:34.344Z,2.10
2023-02-24T20:01:09.394Z,2.00
2023-02-24T20:03:38.019Z,1.92
2023-02-24T20:06:05.244Z,2.13
2023-02-24T20:08:33.988Z,1.83
2023-02-24T20:11:02.353Z,2.35
2023-02-24T20:13:28.930Z,2.08
2023-02-24T20:16:12.849Z,1.70
2023-02-24T20:18:40.692Z,1.75
2023-02-24T20:21:08.355Z,2.38
2023-02-24T20:23:34.742Z,2.20
2023-02-24T20:26:01.945Z,2.10
2023-02-24T20:28:28.851Z,2.00
2023-02-24T20:30:57.884Z,1.95
2023-02-24T20:33:25.906Z,1.90
2023-02-24T20:35:52.346Z,1.80
2023-02-24T20:38:18.738Z,2.30
2023-02-24T20:40:45.227Z,2.60
2023-02-24T20:43:11.918Z,1.92
2023-02-24T20:45:40.841Z,2.00
2023-02-24T20:48:08.711Z,2.00
2023-02-24T20:50:35.682Z,1.98
2023-02-24T20:53:03.453Z,2.00
2023-02-24T20:55:30.490Z,2.45
2023-02-24T20:57:56.862Z,2.13
2023-02-24T21:00:23.236Z,1.83
2023-02-24T21:02:49.651Z,1.77
2023-02-24T21:05:22.859Z,2.20
2023-02-24T21:07:50.409Z,1.77
2023-02-24T21:10:18.236Z,1.73
2023-02-24T21:12:45.025Z,2.03
2023-02-24T21:15:12.320Z,1.70
2023-02-24T21:17:39.690Z,2.10
2023-02-24T21:20:11.130Z,1.70
2023-02-24T21:22:41.477Z,2.25
2023-02-24T21:25:10.693Z,1.85
2023-02-24T21:27:38.263Z,1.90
2023-02-24T21:30:06.996Z,1.85
2023-02-24T21:32:33.687Z,2.00
2023-02-24T21:35:00.204Z,1.67
2023-02-24T21:37:26.593Z,2.20
2023-02-24T21:39:52.972Z,2.28
2023-02-24T21:42:19.370Z,1.70
2023-02-24T21:44:45.793Z,1.88
2023-02-24T21:47:12.277Z,1.65
2023-02-24T21:49:38.819Z,2.10
2023-02-24T21:52:05.481Z,2.28
2023-02-24T21:54:32.643Z,1.98
2023-02-24T21:56:59.103Z,1.90
2023-02-24T21:59:25.478Z,2.53
2023-02-24T22:01:54.142Z,2.03
2023-02-24T22:04:21.730Z,1.83
2023-02-24T22:06:48.388Z,2.08
2023-02-24T22:09:19.425Z,1.60
2023-02-24T22:11:47.404Z,1.85
2023-02-24T22:14:14.595Z,1.98
2023-02-24T22:16:41.576Z,1.70
2023-02-24T22:19:08.430Z,1.80
2023-02-24T22:21:34.933Z,1.88
2023-02-24T22:24:03.065Z,2.05
2023-02-24T22:26:30.796Z,1.80
2023-02-24T22:28:58.061Z,1.50
2023-02-24T22:31:27.217Z,1.85
2023-02-24T22:33:54.233Z,1.77
2023-02-24T22:36:27.065Z,1.45
2023-02-24T22:38:56.270Z,1.88
2023-02-24T22:41:26.163Z,1.60
2023-02-24T22:43:53.942Z,1.90
2023-02-24T22:46:33.558Z,1.50
2023-02-24T22:49:00.382Z,1.50
2023-02-24T22:51:27.622Z,1.98
2023-02-24T22:53:54.872Z,1.95
2023-02-24T22:56:25.311Z,1.60
2023-02-24T22:58:52.139Z,1.55
2023-02-24T23:01:27.394Z,1.63
2023-02-24T23:03:54.084Z,1.58
2023-02-24T23:06:23.480Z,1.50
2023-02-24T23:08:51.146Z,1.55
2023-02-24T23:11:27.616Z,1.60
2023-02-24T23:16:24.834Z,1.40
2023-02-24T23:18:53.786Z,1.40
2023-02-24T23:21:23.688Z,1.60
2023-02-24T23:23:53.482Z,1.80
2023-02-24T23:26:20.362Z,1.77
2023-02-24T23:28:46.970Z,1.77
2023-02-24T23:31:19.748Z,2.28
2023-02-24T23:33:46.474Z,1.38
2023-02-24T23:36:12.862Z,1.48
2023-02-24T23:38:39.275Z,1.77
2023-02-24T23:41:10.071Z,1.65
2023-02-24T23:43:36.481Z,1.83
2023-02-24T23:46:04.239Z,1.50
2023-02-24T23:48:30.630Z,1.42
2023-02-24T23:50:57.417Z,1.52
2023-02-24T23:53:26.844Z,1.83
2023-02-24T23:55:53.517Z,2.00
2023-02-24T23:58:20.313Z,2.05
